Amelia, Nebraska
Current Conditions -  °F | °C
As of 2:15 PM on Wednesday 26 Nov 2014 (Local Time) from KONL Reporting Station
Clear Clear  
Wind Chill: 12°   Ceiling: Unl
Heat Index: 26°   Visibility: 10mi
Dew Point: 18°   Wind: 18mph
Humidity: 71%   Direction: 330°NNW
Pressure: 30.3"   Gusts: 26mph
Location:  42.24°N, 98.91°W
Report Text: KONL 262015Z AUTO 33016G23KT 10SM CLR M03/M08 A3030 RMK AO2 T10341080
Loading
Personal Weather Stations






























Interactive Weather Map New forecast layout! Learn more

10-Day Weather Forecast

Advertisements
Track Severe Weather on mobile